sensor_id;sensor_type;location;lat;lon;timestamp;P1;durP1;ratioP1;P2;durP2;ratioP2
61397;SDS011;47267;48.130;-2.040;2023-03-01T00:01:30;7.55;;;6.55;;
61397;SDS011;47267;48.130;-2.040;2023-03-01T00:03:57;7.88;;;6.47;;
61397;SDS011;47267;48.130;-2.040;2023-03-01T00:06:23;7.60;;;6.35;;
61397;SDS011;47267;48.130;-2.040;2023-03-01T00:08:50;6.90;;;6.15;;
61397;SDS011;47267;48.130;-2.040;2023-03-01T00:11:17;7.65;;;6.32;;
61397;SDS011;47267;48.130;-2.040;2023-03-01T00:13:45;7.28;;;6.18;;
61397;SDS011;47267;48.130;-2.040;2023-03-01T00:16:14;7.53;;;5.70;;
61397;SDS011;47267;48.130;-2.040;2023-03-01T00:18:42;7.20;;;5.88;;
61397;SDS011;47267;48.130;-2.040;2023-03-01T00:21:08;6.90;;;5.43;;
61397;SDS011;47267;48.130;-2.040;2023-03-01T00:23:34;7.03;;;5.97;;
61397;SDS011;47267;48.130;-2.040;2023-03-01T00:26:00;6.80;;;5.72;;
61397;SDS011;47267;48.130;-2.040;2023-03-01T00:28:26;6.57;;;5.88;;
61397;SDS011;47267;48.130;-2.040;2023-03-01T00:30:52;6.20;;;5.30;;
61397;SDS011;47267;48.130;-2.040;2023-03-01T00:33:18;6.43;;;5.70;;
61397;SDS011;47267;48.130;-2.040;2023-03-01T00:35:44;8.07;;;5.75;;
61397;SDS011;47267;48.130;-2.040;2023-03-01T00:38:09;7.60;;;5.50;;
61397;SDS011;47267;48.130;-2.040;2023-03-01T00:40:35;6.35;;;5.28;;
61397;SDS011;47267;48.130;-2.040;2023-03-01T00:43:02;6.90;;;5.47;;
61397;SDS011;47267;48.130;-2.040;2023-03-01T00:45:28;6.20;;;5.20;;
61397;SDS011;47267;48.130;-2.040;2023-03-01T00:47:56;6.80;;;5.45;;
61397;SDS011;47267;48.130;-2.040;2023-03-01T00:50:22;6.60;;;5.00;;
61397;SDS011;47267;48.130;-2.040;2023-03-01T00:52:52;6.65;;;5.53;;
61397;SDS011;47267;48.130;-2.040;2023-03-01T00:55:21;6.63;;;4.80;;
61397;SDS011;47267;48.130;-2.040;2023-03-01T00:57:47;6.60;;;5.18;;
61397;SDS011;47267;48.130;-2.040;2023-03-01T01:00:13;6.43;;;5.00;;
61397;SDS011;47267;48.130;-2.040;2023-03-01T01:02:39;6.38;;;4.95;;
61397;SDS011;47267;48.130;-2.040;2023-03-01T01:05:05;5.05;;;4.50;;
61397;SDS011;47267;48.130;-2.040;2023-03-01T01:07:31;5.60;;;4.90;;
61397;SDS011;47267;48.130;-2.040;2023-03-01T01:09:57;5.50;;;4.70;;
61397;SDS011;47267;48.130;-2.040;2023-03-01T01:12:23;5.53;;;4.88;;
61397;SDS011;47267;48.130;-2.040;2023-03-01T01:14:49;5.78;;;4.78;;
61397;SDS011;47267;48.130;-2.040;2023-03-01T01:17:15;5.40;;;4.60;;
61397;SDS011;47267;48.130;-2.040;2023-03-01T01:19:40;6.28;;;4.60;;
61397;SDS011;47267;48.130;-2.040;2023-03-01T01:22:06;5.80;;;4.50;;
61397;SDS011;47267;48.130;-2.040;2023-03-01T01:24:32;5.47;;;4.45;;
61397;SDS011;47267;48.130;-2.040;2023-03-01T01:26:58;4.35;;;3.88;;
61397;SDS011;47267;48.130;-2.040;2023-03-01T01:29:23;5.78;;;4.18;;
61397;SDS011;47267;48.130;-2.040;2023-03-01T01:31:49;5.88;;;4.88;;
61397;SDS011;47267;48.130;-2.040;2023-03-01T01:34:16;6.20;;;4.53;;
61397;SDS011;47267;48.130;-2.040;2023-03-01T01:36:43;6.38;;;4.35;;
61397;SDS011;47267;48.130;-2.040;2023-03-01T01:39:12;5.80;;;4.30;;
61397;SDS011;47267;48.130;-2.040;2023-03-01T01:41:38;6.00;;;4.50;;
61397;SDS011;47267;48.130;-2.040;2023-03-01T01:46:41;5.03;;;4.45;;
61397;SDS011;47267;48.130;-2.040;2023-03-01T01:49:22;5.05;;;4.35;;
61397;SDS011;47267;48.130;-2.040;2023-03-01T01:51:49;5.70;;;4.30;;
61397;SDS011;47267;48.130;-2.040;2023-03-01T01:54:25;5.15;;;4.30;;
61397;SDS011;47267;48.130;-2.040;2023-03-01T01:56:58;4.70;;;3.97;;
61397;SDS011;47267;48.130;-2.040;2023-03-01T01:59:27;4.70;;;3.75;;
61397;SDS011;47267;48.130;-2.040;2023-03-01T02:01:55;5.00;;;3.90;;
61397;SDS011;47267;48.130;-2.040;2023-03-01T02:04:24;5.10;;;4.22;;
61397;SDS011;47267;48.130;-2.040;2023-03-01T02:06:58;4.85;;;4.03;;
61397;SDS011;47267;48.130;-2.040;2023-03-01T02:09:32;4.97;;;3.80;;
61397;SDS011;47267;48.130;-2.040;2023-03-01T02:12:00;4.45;;;3.97;;
61397;SDS011;47267;48.130;-2.040;2023-03-01T02:14:26;5.38;;;3.90;;
61397;SDS011;47267;48.130;-2.040;2023-03-01T02:16:52;4.53;;;3.53;;
61397;SDS011;47267;48.130;-2.040;2023-03-01T02:22:28;4.53;;;3.53;;
61397;SDS011;47267;48.130;-2.040;2023-03-01T02:30:35;4.20;;;3.70;;
61397;SDS011;47267;48.130;-2.040;2023-03-01T02:33:02;4.45;;;3.35;;
61397;SDS011;47267;48.130;-2.040;2023-03-01T02:35:30;4.63;;;3.33;;
61397;SDS011;47267;48.130;-2.040;2023-03-01T02:37:59;5.00;;;3.65;;
61397;SDS011;47267;48.130;-2.040;2023-03-01T02:40:27;4.75;;;3.20;;
61397;SDS011;47267;48.130;-2.040;2023-03-01T02:42:56;4.43;;;3.40;;
61397;SDS011;47267;48.130;-2.040;2023-03-01T02:45:23;4.45;;;3.60;;
61397;SDS011;47267;48.130;-2.040;2023-03-01T02:47:49;4.63;;;3.55;;
61397;SDS011;47267;48.130;-2.040;2023-03-01T02:53:08;3.55;;;3.08;;
61397;SDS011;47267;48.130;-2.040;2023-03-01T02:55:41;4.38;;;3.35;;
61397;SDS011;47267;48.130;-2.040;2023-03-01T02:58:07;3.95;;;3.33;;
61397;SDS011;47267;48.130;-2.040;2023-03-01T03:00:35;4.28;;;3.15;;
61397;SDS011;47267;48.130;-2.040;2023-03-01T03:03:19;4.28;;;3.35;;
61397;SDS011;47267;48.130;-2.040;2023-03-01T03:05:46;3.90;;;3.42;;
61397;SDS011;47267;48.130;-2.040;2023-03-01T03:08:13;3.70;;;3.25;;
61397;SDS011;47267;48.130;-2.040;2023-03-01T03:10:41;4.22;;;3.45;;
61397;SDS011;47267;48.130;-2.040;2023-03-01T03:13:11;3.10;;;2.80;;
61397;SDS011;47267;48.130;-2.040;2023-03-01T03:15:38;3.90;;;3.13;;
61397;SDS011;47267;48.130;-2.040;2023-03-01T03:18:06;3.97;;;3.00;;
61397;SDS011;47267;48.130;-2.040;2023-03-01T03:20:34;3.45;;;3.03;;
61397;SDS011;47267;48.130;-2.040;2023-03-01T03:23:01;3.30;;;3.00;;
61397;SDS011;47267;48.130;-2.040;2023-03-01T03:25:28;3.47;;;3.00;;
61397;SDS011;47267;48.130;-2.040;2023-03-01T03:27:54;3.20;;;2.90;;
61397;SDS011;47267;48.130;-2.040;2023-03-01T03:30:25;4.65;;;2.90;;
61397;SDS011;47267;48.130;-2.040;2023-03-01T03:32:56;3.40;;;2.83;;
61397;SDS011;47267;48.130;-2.040;2023-03-01T03:35:24;3.55;;;2.75;;
61397;SDS011;47267;48.130;-2.040;2023-03-01T03:37:53;4.30;;;2.80;;
61397;SDS011;47267;48.130;-2.040;2023-03-01T03:40:28;3.30;;;2.72;;
61397;SDS011;47267;48.130;-2.040;2023-03-01T03:43:02;3.45;;;2.70;;
61397;SDS011;47267;48.130;-2.040;2023-03-01T03:45:32;3.72;;;3.00;;
61397;SDS011;47267;48.130;-2.040;2023-03-01T03:47:58;3.53;;;2.67;;
61397;SDS011;47267;48.130;-2.040;2023-03-01T03:50:25;3.05;;;2.78;;
61397;SDS011;47267;48.130;-2.040;2023-03-01T03:52:51;3.42;;;2.72;;
61397;SDS011;47267;48.130;-2.040;2023-03-01T03:55:17;3.72;;;2.53;;
61397;SDS011;47267;48.130;-2.040;2023-03-01T03:57:44;3.20;;;2.55;;
61397;SDS011;47267;48.130;-2.040;2023-03-01T04:00:17;3.42;;;2.75;;
61397;SDS011;47267;48.130;-2.040;2023-03-01T04:02:44;3.10;;;2.60;;
61397;SDS011;47267;48.130;-2.040;2023-03-01T04:05:12;3.92;;;2.58;;
61397;SDS011;47267;48.130;-2.040;2023-03-01T04:07:40;3.83;;;3.10;;
61397;SDS011;47267;48.130;-2.040;2023-03-01T04:10:08;3.13;;;2.55;;
61397;SDS011;47267;48.130;-2.040;2023-03-01T04:12:36;2.75;;;2.38;;
61397;SDS011;47267;48.130;-2.040;2023-03-01T04:15:02;4.32;;;3.00;;
61397;SDS011;47267;48.130;-2.040;2023-03-01T04:17:38;3.42;;;2.63;;
61397;SDS011;47267;48.130;-2.040;2023-03-01T04:20:14;3.58;;;2.30;;
61397;SDS011;47267;48.130;-2.040;2023-03-01T04:22:42;2.45;;;2.05;;
61397;SDS011;47267;48.130;-2.040;2023-03-01T04:25:11;3.28;;;2.47;;
61397;SDS011;47267;48.130;-2.040;2023-03-01T04:27:39;3.20;;;2.63;;
61397;SDS011;47267;48.130;-2.040;2023-03-01T04:30:05;3.10;;;2.20;;
61397;SDS011;47267;48.130;-2.040;2023-03-01T04:32:32;3.03;;;2.30;;
61397;SDS011;47267;48.130;-2.040;2023-03-01T04:34:58;4.30;;;2.60;;
61397;SDS011;47267;48.130;-2.040;2023-03-01T04:37:24;3.47;;;2.33;;
61397;SDS011;47267;48.130;-2.040;2023-03-01T04:39:50;2.65;;;2.40;;
61397;SDS011;47267;48.130;-2.040;2023-03-01T04:42:17;3.33;;;2.22;;
61397;SDS011;47267;48.130;-2.040;2023-03-01T04:44:43;2.40;;;2.15;;
61397;SDS011;47267;48.130;-2.040;2023-03-01T04:47:09;2.60;;;2.40;;
61397;SDS011;47267;48.130;-2.040;2023-03-01T04:49:35;2.47;;;2.00;;
61397;SDS011;47267;48.130;-2.040;2023-03-01T04:52:01;2.25;;;2.05;;
61397;SDS011;47267;48.130;-2.040;2023-03-01T04:54:33;2.92;;;2.40;;
61397;SDS011;47267;48.130;-2.040;2023-03-01T04:56:59;3.33;;;2.33;;
61397;SDS011;47267;48.130;-2.040;2023-03-01T04:59:26;3.58;;;2.35;;
61397;SDS011;47267;48.130;-2.040;2023-03-01T05:01:52;2.78;;;2.35;;
61397;SDS011;47267;48.130;-2.040;2023-03-01T05:04:22;2.50;;;2.00;;
61397;SDS011;47267;48.130;-2.040;2023-03-01T05:06:49;2.75;;;2.20;;
61397;SDS011;47267;48.130;-2.040;2023-03-01T05:09:15;3.42;;;2.25;;
61397;SDS011;47267;48.130;-2.040;2023-03-01T05:11:40;3.13;;;2.15;;
61397;SDS011;47267;48.130;-2.040;2023-03-01T05:14:07;2.42;;;2.05;;
61397;SDS011;47267;48.130;-2.040;2023-03-01T05:16:33;3.70;;;2.40;;
61397;SDS011;47267;48.130;-2.040;2023-03-01T05:19:01;3.45;;;2.35;;
61397;SDS011;47267;48.130;-2.040;2023-03-01T05:21:36;2.83;;;2.42;;
61397;SDS011;47267;48.130;-2.040;2023-03-01T05:24:22;3.60;;;2.55;;
61397;SDS011;47267;48.130;-2.040;2023-03-01T05:26:48;2.75;;;2.25;;
61397;SDS011;47267;48.130;-2.040;2023-03-01T05:29:16;2.70;;;2.00;;
61397;SDS011;47267;48.130;-2.040;2023-03-01T05:31:44;3.03;;;2.10;;
61397;SDS011;47267;48.130;-2.040;2023-03-01T05:34:09;2.40;;;2.00;;
61397;SDS011;47267;48.130;-2.040;2023-03-01T05:36:37;2.60;;;2.22;;
61397;SDS011;47267;48.130;-2.040;2023-03-01T05:39:03;2.65;;;2.28;;
61397;SDS011;47267;48.130;-2.040;2023-03-01T05:41:29;3.30;;;2.20;;
61397;SDS011;47267;48.130;-2.040;2023-03-01T05:43:55;2.30;;;1.95;;
61397;SDS011;47267;48.130;-2.040;2023-03-01T05:46:20;4.43;;;2.40;;
61397;SDS011;47267;48.130;-2.040;2023-03-01T05:48:49;2.58;;;2.05;;
61397;SDS011;47267;48.130;-2.040;2023-03-01T05:51:15;3.13;;;2.30;;
61397;SDS011;47267;48.130;-2.040;2023-03-01T05:53:40;3.67;;;2.30;;
61397;SDS011;47267;48.130;-2.040;2023-03-01T05:56:06;2.28;;;2.03;;
61397;SDS011;47267;48.130;-2.040;2023-03-01T05:58:32;2.65;;;2.13;;
61397;SDS011;47267;48.130;-2.040;2023-03-01T06:00:58;2.80;;;2.20;;
61397;SDS011;47267;48.130;-2.040;2023-03-01T06:03:24;2.88;;;2.33;;
61397;SDS011;47267;48.130;-2.040;2023-03-01T06:05:49;2.50;;;2.03;;
61397;SDS011;47267;48.130;-2.040;2023-03-01T06:08:20;2.42;;;2.08;;
61397;SDS011;47267;48.130;-2.040;2023-03-01T06:10:47;3.15;;;2.22;;
61397;SDS011;47267;48.130;-2.040;2023-03-01T06:13:12;3.40;;;2.22;;
61397;SDS011;47267;48.130;-2.040;2023-03-01T06:15:38;3.00;;;2.20;;
61397;SDS011;47267;48.130;-2.040;2023-03-01T06:18:04;4.55;;;2.35;;
61397;SDS011;47267;48.130;-2.040;2023-03-01T06:20:29;3.60;;;2.20;;
61397;SDS011;47267;48.130;-2.040;2023-03-01T06:22:55;2.70;;;2.30;;
61397;SDS011;47267;48.130;-2.040;2023-03-01T06:25:22;3.00;;;2.28;;
61397;SDS011;47267;48.130;-2.040;2023-03-01T06:27:49;3.45;;;1.95;;
61397;SDS011;47267;48.130;-2.040;2023-03-01T06:30:17;24.67;;;2.70;;
61397;SDS011;47267;48.130;-2.040;2023-03-01T06:32:44;4.03;;;2.03;;
61397;SDS011;47267;48.130;-2.040;2023-03-01T06:35:11;3.22;;;2.35;;
61397;SDS011;47267;48.130;-2.040;2023-03-01T06:37:39;5.40;;;2.42;;
61397;SDS011;47267;48.130;-2.040;2023-03-01T06:40:05;4.72;;;2.50;;
61397;SDS011;47267;48.130;-2.040;2023-03-01T06:42:36;3.25;;;2.50;;
61397;SDS011;47267;48.130;-2.040;2023-03-01T06:45:07;3.97;;;2.50;;
61397;SDS011;47267;48.130;-2.040;2023-03-01T06:47:33;4.30;;;2.50;;
61397;SDS011;47267;48.130;-2.040;2023-03-01T06:49:59;5.68;;;2.50;;
61397;SDS011;47267;48.130;-2.040;2023-03-01T06:52:26;4.72;;;2.60;;
61397;SDS011;47267;48.130;-2.040;2023-03-01T06:54:51;7.32;;;3.15;;
61397;SDS011;47267;48.130;-2.040;2023-03-01T06:57:17;6.72;;;3.17;;
61397;SDS011;47267;48.130;-2.040;2023-03-01T06:59:43;5.00;;;2.95;;
61397;SDS011;47267;48.130;-2.040;2023-03-01T07:02:12;5.80;;;2.97;;
61397;SDS011;47267;48.130;-2.040;2023-03-01T07:04:39;6.50;;;3.22;;
61397;SDS011;47267;48.130;-2.040;2023-03-01T07:07:04;5.22;;;2.78;;
61397;SDS011;47267;48.130;-2.040;2023-03-01T07:09:30;11.98;;;2.83;;
61397;SDS011;47267;48.130;-2.040;2023-03-01T07:11:56;5.50;;;2.92;;
61397;SDS011;47267;48.130;-2.040;2023-03-01T07:14:22;6.53;;;3.15;;
61397;SDS011;47267;48.130;-2.040;2023-03-01T07:16:50;6.75;;;3.13;;
61397;SDS011;47267;48.130;-2.040;2023-03-01T07:19:18;11.90;;;3.47;;
61397;SDS011;47267;48.130;-2.040;2023-03-01T07:21:45;4.80;;;2.80;;
61397;SDS011;47267;48.130;-2.040;2023-03-01T07:24:11;6.68;;;2.97;;
61397;SDS011;47267;48.130;-2.040;2023-03-01T07:26:36;4.65;;;3.03;;
61397;SDS011;47267;48.130;-2.040;2023-03-01T07:29:03;5.88;;;2.90;;
61397;SDS011;47267;48.130;-2.040;2023-03-01T07:31:30;4.78;;;3.22;;
61397;SDS011;47267;48.130;-2.040;2023-03-01T07:33:56;3.50;;;2.50;;
61397;SDS011;47267;48.130;-2.040;2023-03-01T07:36:22;4.45;;;2.75;;
61397;SDS011;47267;48.130;-2.040;2023-03-01T07:38:49;5.40;;;2.95;;
61397;SDS011;47267;48.130;-2.040;2023-03-01T07:41:14;6.13;;;3.17;;
61397;SDS011;47267;48.130;-2.040;2023-03-01T07:43:40;5.00;;;2.95;;
61397;SDS011;47267;48.130;-2.040;2023-03-01T07:46:06;6.78;;;2.97;;
61397;SDS011;47267;48.130;-2.040;2023-03-01T07:48:32;6.13;;;3.05;;
61397;SDS011;47267;48.130;-2.040;2023-03-01T07:51:01;4.07;;;2.53;;
61397;SDS011;47267;48.130;-2.040;2023-03-01T07:53:29;5.80;;;2.75;;
61397;SDS011;47267;48.130;-2.040;2023-03-01T07:56:06;5.93;;;3.15;;
61397;SDS011;47267;48.130;-2.040;2023-03-01T07:58:34;4.75;;;3.10;;
61397;SDS011;47267;48.130;-2.040;2023-03-01T08:01:03;4.63;;;2.97;;
61397;SDS011;47267;48.130;-2.040;2023-03-01T08:03:30;4.68;;;3.03;;
61397;SDS011;47267;48.130;-2.040;2023-03-01T08:05:58;3.72;;;2.63;;
61397;SDS011;47267;48.130;-2.040;2023-03-01T08:08:26;5.95;;;3.03;;
61397;SDS011;47267;48.130;-2.040;2023-03-01T08:10:52;5.93;;;3.08;;
61397;SDS011;47267;48.130;-2.040;2023-03-01T08:13:17;4.43;;;2.78;;
61397;SDS011;47267;48.130;-2.040;2023-03-01T08:15:50;4.47;;;2.70;;
61397;SDS011;47267;48.130;-2.040;2023-03-01T08:18:16;5.93;;;3.05;;
61397;SDS011;47267;48.130;-2.040;2023-03-01T08:20:43;3.72;;;2.90;;
61397;SDS011;47267;48.130;-2.040;2023-03-01T08:23:12;3.25;;;2.30;;
61397;SDS011;47267;48.130;-2.040;2023-03-01T08:25:38;4.38;;;2.58;;
61397;SDS011;47267;48.130;-2.040;2023-03-01T08:28:04;4.32;;;2.40;;
61397;SDS011;47267;48.130;-2.040;2023-03-01T08:30:31;3.75;;;2.50;;
61397;SDS011;47267;48.130;-2.040;2023-03-01T08:32:57;4.07;;;2.83;;
61397;SDS011;47267;48.130;-2.040;2023-03-01T08:35:22;3.75;;;2.55;;
61397;SDS011;47267;48.130;-2.040;2023-03-01T08:37:48;3.60;;;2.20;;
61397;SDS011;47267;48.130;-2.040;2023-03-01T08:40:14;3.90;;;2.97;;
61397;SDS011;47267;48.130;-2.040;2023-03-01T08:42:41;3.75;;;2.63;;
61397;SDS011;47267;48.130;-2.040;2023-03-01T08:45:08;4.22;;;2.58;;
61397;SDS011;47267;48.130;-2.040;2023-03-01T08:47:34;5.40;;;2.40;;
61397;SDS011;47267;48.130;-2.040;2023-03-01T08:50:00;5.55;;;2.75;;
61397;SDS011;47267;48.130;-2.040;2023-03-01T08:52:26;4.07;;;2.58;;
61397;SDS011;47267;48.130;-2.040;2023-03-01T08:54:52;3.85;;;2.45;;
61397;SDS011;47267;48.130;-2.040;2023-03-01T08:57:18;2.92;;;2.35;;
61397;SDS011;47267;48.130;-2.040;2023-03-01T08:59:44;3.75;;;2.40;;
61397;SDS011;47267;48.130;-2.040;2023-03-01T09:02:11;3.35;;;2.45;;
61397;SDS011;47267;48.130;-2.040;2023-03-01T09:04:39;5.35;;;2.45;;
61397;SDS011;47267;48.130;-2.040;2023-03-01T09:07:05;5.32;;;2.90;;
61397;SDS011;47267;48.130;-2.040;2023-03-01T09:09:31;3.58;;;2.53;;
61397;SDS011;47267;48.130;-2.040;2023-03-01T09:11:57;4.88;;;2.40;;
61397;SDS011;47267;48.130;-2.040;2023-03-01T09:14:23;3.85;;;2.50;;
61397;SDS011;47267;48.130;-2.040;2023-03-01T09:16:48;4.63;;;2.60;;
61397;SDS011;47267;48.130;-2.040;2023-03-01T09:19:14;4.13;;;2.67;;
61397;SDS011;47267;48.130;-2.040;2023-03-01T09:21:40;5.15;;;2.53;;
61397;SDS011;47267;48.130;-2.040;2023-03-01T09:24:13;4.07;;;2.53;;
61397;SDS011;47267;48.130;-2.040;2023-03-01T09:26:39;4.57;;;2.33;;
61397;SDS011;47267;48.130;-2.040;2023-03-01T09:29:05;4.70;;;2.67;;
61397;SDS011;47267;48.130;-2.040;2023-03-01T09:31:30;4.50;;;2.42;;
61397;SDS011;47267;48.130;-2.040;2023-03-01T09:33:56;4.60;;;2.47;;
61397;SDS011;47267;48.130;-2.040;2023-03-01T09:36:23;4.05;;;2.47;;
61397;SDS011;47267;48.130;-2.040;2023-03-01T09:38:50;2.95;;;2.38;;
61397;SDS011;47267;48.130;-2.040;2023-03-01T09:43:53;3.58;;;2.42;;
61397;SDS011;47267;48.130;-2.040;2023-03-01T09:46:24;3.67;;;2.45;;
61397;SDS011;47267;48.130;-2.040;2023-03-01T09:48:55;4.93;;;2.60;;
61397;SDS011;47267;48.130;-2.040;2023-03-01T09:51:29;3.92;;;2.50;;
61397;SDS011;47267;48.130;-2.040;2023-03-01T09:53:57;3.25;;;2.35;;
61397;SDS011;47267;48.130;-2.040;2023-03-01T10:02:01;4.30;;;2.30;;
61397;SDS011;47267;48.130;-2.040;2023-03-01T10:04:50;3.33;;;2.40;;
61397;SDS011;47267;48.130;-2.040;2023-03-01T10:09:54;3.65;;;2.47;;
61397;SDS011;47267;48.130;-2.040;2023-03-01T10:12:21;3.05;;;2.45;;
61397;SDS011;47267;48.130;-2.040;2023-03-01T10:17:36;3.17;;;2.30;;
61397;SDS011;47267;48.130;-2.040;2023-03-01T10:22:42;3.70;;;2.50;;
61397;SDS011;47267;48.130;-2.040;2023-03-01T10:25:12;3.55;;;2.25;;
61397;SDS011;47267;48.130;-2.040;2023-03-01T10:30:21;2.72;;;2.22;;
61397;SDS011;47267;48.130;-2.040;2023-03-01T10:32:57;3.35;;;2.47;;
61397;SDS011;47267;48.130;-2.040;2023-03-01T10:35:24;3.75;;;2.28;;
61397;SDS011;47267;48.130;-2.040;2023-03-01T10:38:08;2.85;;;2.05;;
61397;SDS011;47267;48.130;-2.040;2023-03-01T10:40:36;3.63;;;2.42;;
61397;SDS011;47267;48.130;-2.040;2023-03-01T10:43:25;4.28;;;2.20;;
61397;SDS011;47267;48.130;-2.040;2023-03-01T10:45:53;3.63;;;2.30;;
61397;SDS011;47267;48.130;-2.040;2023-03-01T10:48:22;3.00;;;2.17;;
61397;SDS011;47267;48.130;-2.040;2023-03-01T10:53:26;2.75;;;2.05;;
61397;SDS011;47267;48.130;-2.040;2023-03-01T10:55:59;4.22;;;2.40;;
61397;SDS011;47267;48.130;-2.040;2023-03-01T10:58:34;3.40;;;2.33;;
61397;SDS011;47267;48.130;-2.040;2023-03-01T11:01:05;3.47;;;2.15;;
61397;SDS011;47267;48.130;-2.040;2023-03-01T11:03:35;4.50;;;2.60;;
61397;SDS011;47267;48.130;-2.040;2023-03-01T11:16:31;2.58;;;2.10;;
61397;SDS011;47267;48.130;-2.040;2023-03-01T11:21:38;3.05;;;2.20;;
61397;SDS011;47267;48.130;-2.040;2023-03-01T11:24:11;3.40;;;2.13;;
61397;SDS011;47267;48.130;-2.040;2023-03-01T11:29:11;4.43;;;2.60;;
61397;SDS011;47267;48.130;-2.040;2023-03-01T11:31:40;5.15;;;2.40;;
61397;SDS011;47267;48.130;-2.040;2023-03-01T11:34:14;3.53;;;2.33;;
61397;SDS011;47267;48.130;-2.040;2023-03-01T11:36:55;3.53;;;2.30;;
61397;SDS011;47267;48.130;-2.040;2023-03-01T11:42:25;2.88;;;1.90;;
61397;SDS011;47267;48.130;-2.040;2023-03-01T11:45:06;2.95;;;1.88;;
61397;SDS011;47267;48.130;-2.040;2023-03-01T11:50:17;2.50;;;1.90;;
61397;SDS011;47267;48.130;-2.040;2023-03-01T11:58:23;3.50;;;2.13;;
61397;SDS011;47267;48.130;-2.040;2023-03-01T12:26:45;2.47;;;1.75;;
61397;SDS011;47267;48.130;-2.040;2023-03-01T12:34:46;3.00;;;1.77;;
61397;SDS011;47267;48.130;-2.040;2023-03-01T12:50:59;3.28;;;1.90;;
61397;SDS011;47267;48.130;-2.040;2023-03-01T12:53:31;3.25;;;1.70;;
61397;SDS011;47267;48.130;-2.040;2023-03-01T12:56:07;2.95;;;2.00;;
61397;SDS011;47267;48.130;-2.040;2023-03-01T13:07:23;3.50;;;2.13;;
61397;SDS011;47267;48.130;-2.040;2023-03-01T13:17:48;4.18;;;1.80;;
61397;SDS011;47267;48.130;-2.040;2023-03-01T13:20:24;4.35;;;1.90;;
61397;SDS011;47267;48.130;-2.040;2023-03-01T13:31:00;4.15;;;2.00;;
61397;SDS011;47267;48.130;-2.040;2023-03-01T13:35:53;6.00;;;2.28;;
61397;SDS011;47267;48.130;-2.040;2023-03-01T13:44:25;8.45;;;1.73;;
61397;SDS011;47267;48.130;-2.040;2023-03-01T13:46:59;4.65;;;1.77;;
61397;SDS011;47267;48.130;-2.040;2023-03-01T13:55:03;4.05;;;1.90;;
61397;SDS011;47267;48.130;-2.040;2023-03-01T13:57:53;4.22;;;1.75;;
61397;SDS011;47267;48.130;-2.040;2023-03-01T14:00:37;5.97;;;1.92;;
61397;SDS011;47267;48.130;-2.040;2023-03-01T14:05:39;8.90;;;1.92;;
61397;SDS011;47267;48.130;-2.040;2023-03-01T14:08:23;6.68;;;1.77;;
61397;SDS011;47267;48.130;-2.040;2023-03-01T14:11:04;4.80;;;1.77;;
61397;SDS011;47267;48.130;-2.040;2023-03-01T14:19:02;4.47;;;1.58;;
61397;SDS011;47267;48.130;-2.040;2023-03-01T14:24:59;3.78;;;1.80;;
61397;SDS011;47267;48.130;-2.040;2023-03-01T14:27:33;3.65;;;1.50;;
61397;SDS011;47267;48.130;-2.040;2023-03-01T14:30:11;4.22;;;1.60;;
61397;SDS011;47267;48.130;-2.040;2023-03-01T14:32:47;3.78;;;1.60;;
61397;SDS011;47267;48.130;-2.040;2023-03-01T14:35:22;2.75;;;1.58;;
61397;SDS011;47267;48.130;-2.040;2023-03-01T14:37:53;3.85;;;1.52;;
61397;SDS011;47267;48.130;-2.040;2023-03-01T14:40:21;3.92;;;1.40;;
61397;SDS011;47267;48.130;-2.040;2023-03-01T14:43:01;3.67;;;1.48;;
61397;SDS011;47267;48.130;-2.040;2023-03-01T14:45:34;3.00;;;2.70;;
61397;SDS011;47267;48.130;-2.040;2023-03-01T14:48:01;2.40;;;1.63;;
61397;SDS011;47267;48.130;-2.040;2023-03-01T14:50:29;3.65;;;1.50;;
61397;SDS011;47267;48.130;-2.040;2023-03-01T14:52:58;2.95;;;1.63;;
61397;SDS011;47267;48.130;-2.040;2023-03-01T14:55:37;2.25;;;1.30;;
61397;SDS011;47267;48.130;-2.040;2023-03-01T14:58:10;4.93;;;1.63;;
61397;SDS011;47267;48.130;-2.040;2023-03-01T15:00:39;5.53;;;1.63;;
61397;SDS011;47267;48.130;-2.040;2023-03-01T15:03:27;4.70;;;1.50;;
61397;SDS011;47267;48.130;-2.040;2023-03-01T15:06:02;3.00;;;1.30;;
61397;SDS011;47267;48.130;-2.040;2023-03-01T15:08:30;4.72;;;1.63;;
61397;SDS011;47267;48.130;-2.040;2023-03-01T15:11:04;2.33;;;1.40;;
61397;SDS011;47267;48.130;-2.040;2023-03-01T15:13:51;3.85;;;1.77;;
61397;SDS011;47267;48.130;-2.040;2023-03-01T15:16:24;2.13;;;1.20;;
61397;SDS011;47267;48.130;-2.040;2023-03-01T15:19:05;3.47;;;1.70;;
61397;SDS011;47267;48.130;-2.040;2023-03-01T15:21:32;2.40;;;1.60;;
61397;SDS011;47267;48.130;-2.040;2023-03-01T15:24:03;2.47;;;1.30;;
61397;SDS011;47267;48.130;-2.040;2023-03-01T15:26:37;2.60;;;1.48;;
61397;SDS011;47267;48.130;-2.040;2023-03-01T15:29:10;3.08;;;1.48;;
61397;SDS011;47267;48.130;-2.040;2023-03-01T15:31:41;2.15;;;1.10;;
61397;SDS011;47267;48.130;-2.040;2023-03-01T15:34:27;2.70;;;1.27;;
61397;SDS011;47267;48.130;-2.040;2023-03-01T15:36:55;2.20;;;1.38;;
61397;SDS011;47267;48.130;-2.040;2023-03-01T15:39:31;2.28;;;1.27;;
61397;SDS011;47267;48.130;-2.040;2023-03-01T15:42:13;2.38;;;1.25;;
61397;SDS011;47267;48.130;-2.040;2023-03-01T15:47:46;1.70;;;1.13;;
61397;SDS011;47267;48.130;-2.040;2023-03-01T15:50:19;1.95;;;1.23;;
61397;SDS011;47267;48.130;-2.040;2023-03-01T15:52:47;2.28;;;1.30;;
61397;SDS011;47267;48.130;-2.040;2023-03-01T15:55:21;2.05;;;1.25;;
61397;SDS011;47267;48.130;-2.040;2023-03-01T15:57:49;2.55;;;1.35;;
61397;SDS011;47267;48.130;-2.040;2023-03-01T16:00:28;1.90;;;1.10;;
61397;SDS011;47267;48.130;-2.040;2023-03-01T16:02:54;2.75;;;1.40;;
61397;SDS011;47267;48.130;-2.040;2023-03-01T16:05:24;2.50;;;1.38;;
61397;SDS011;47267;48.130;-2.040;2023-03-01T16:07:52;1.98;;;1.30;;
61397;SDS011;47267;48.130;-2.040;2023-03-01T16:10:18;2.63;;;1.20;;
61397;SDS011;47267;48.130;-2.040;2023-03-01T16:12:44;2.78;;;1.27;;
61397;SDS011;47267;48.130;-2.040;2023-03-01T16:15:16;2.88;;;1.40;;
61397;SDS011;47267;48.130;-2.040;2023-03-01T16:17:51;2.13;;;1.23;;
61397;SDS011;47267;48.130;-2.040;2023-03-01T16:20:17;3.15;;;1.58;;
61397;SDS011;47267;48.130;-2.040;2023-03-01T16:22:44;2.28;;;1.35;;
61397;SDS011;47267;48.130;-2.040;2023-03-01T16:25:11;3.40;;;1.40;;
61397;SDS011;47267;48.130;-2.040;2023-03-01T16:27:38;2.85;;;1.20;;
61397;SDS011;47267;48.130;-2.040;2023-03-01T16:30:07;1.75;;;1.30;;
61397;SDS011;47267;48.130;-2.040;2023-03-01T16:32:37;1.95;;;1.05;;
61397;SDS011;47267;48.130;-2.040;2023-03-01T16:35:10;4.65;;;1.33;;
61397;SDS011;47267;48.130;-2.040;2023-03-01T16:37:38;4.30;;;1.10;;
61397;SDS011;47267;48.130;-2.040;2023-03-01T16:40:05;3.30;;;1.30;;
61397;SDS011;47267;48.130;-2.040;2023-03-01T16:42:37;2.10;;;1.30;;
61397;SDS011;47267;48.130;-2.040;2023-03-01T16:45:03;2.90;;;1.45;;
61397;SDS011;47267;48.130;-2.040;2023-03-01T16:47:29;1.90;;;1.25;;
61397;SDS011;47267;48.130;-2.040;2023-03-01T16:49:55;3.00;;;1.00;;
61397;SDS011;47267;48.130;-2.040;2023-03-01T16:52:21;1.88;;;1.25;;
61397;SDS011;47267;48.130;-2.040;2023-03-01T16:54:47;2.35;;;1.10;;
61397;SDS011;47267;48.130;-2.040;2023-03-01T16:57:13;2.53;;;1.30;;
61397;SDS011;47267;48.130;-2.040;2023-03-01T16:59:39;3.85;;;1.20;;
61397;SDS011;47267;48.130;-2.040;2023-03-01T17:02:05;1.60;;;1.13;;
61397;SDS011;47267;48.130;-2.040;2023-03-01T17:04:35;3.30;;;1.45;;
61397;SDS011;47267;48.130;-2.040;2023-03-01T17:07:01;2.92;;;1.30;;
61397;SDS011;47267;48.130;-2.040;2023-03-01T17:09:27;2.50;;;1.20;;
61397;SDS011;47267;48.130;-2.040;2023-03-01T17:11:52;2.42;;;1.33;;
61397;SDS011;47267;48.130;-2.040;2023-03-01T17:14:19;4.72;;;1.42;;
61397;SDS011;47267;48.130;-2.040;2023-03-01T17:16:45;2.63;;;1.40;;
61397;SDS011;47267;48.130;-2.040;2023-03-01T17:19:12;4.53;;;1.10;;
61397;SDS011;47267;48.130;-2.040;2023-03-01T17:21:43;2.08;;;1.15;;
61397;SDS011;47267;48.130;-2.040;2023-03-01T17:24:09;2.92;;;1.15;;